sensor_id;sensor_type;location;lat;lon;timestamp;P1;durP1;ratioP1;P2;durP2;ratioP2
62848;SDS011;48941;49.516;8.286;2023-03-23T00:00:51;4.32;;;1.80;;
62848;SDS011;48941;49.516;8.286;2023-03-23T00:03:19;2.60;;;1.60;;
62848;SDS011;48941;49.516;8.286;2023-03-23T00:05:46;1.70;;;1.60;;
62848;SDS011;48941;49.516;8.286;2023-03-23T00:08:16;3.90;;;1.80;;
62848;SDS011;48941;49.516;8.286;2023-03-23T00:10:48;3.47;;;1.80;;
62848;SDS011;48941;49.516;8.286;2023-03-23T00:13:17;4.85;;;1.77;;
62848;SDS011;48941;49.516;8.286;2023-03-23T00:15:45;4.30;;;2.00;;
62848;SDS011;48941;49.516;8.286;2023-03-23T00:18:14;1.85;;;1.67;;
62848;SDS011;48941;49.516;8.286;2023-03-23T00:20:47;1.92;;;1.70;;
62848;SDS011;48941;49.516;8.286;2023-03-23T00:23:15;2.13;;;1.60;;
62848;SDS011;48941;49.516;8.286;2023-03-23T00:25:44;3.03;;;1.73;;
62848;SDS011;48941;49.516;8.286;2023-03-23T00:28:14;7.80;;;1.90;;
62848;SDS011;48941;49.516;8.286;2023-03-23T00:30:41;2.15;;;1.67;;
62848;SDS011;48941;49.516;8.286;2023-03-23T00:33:10;3.42;;;1.73;;
62848;SDS011;48941;49.516;8.286;2023-03-23T00:35:38;5.00;;;1.83;;
62848;SDS011;48941;49.516;8.286;2023-03-23T00:38:06;2.45;;;2.00;;
62848;SDS011;48941;49.516;8.286;2023-03-23T00:40:33;4.47;;;2.03;;
62848;SDS011;48941;49.516;8.286;2023-03-23T00:43:01;3.30;;;1.60;;
62848;SDS011;48941;49.516;8.286;2023-03-23T00:45:30;2.15;;;1.70;;
62848;SDS011;48941;49.516;8.286;2023-03-23T00:48:00;3.88;;;1.63;;
62848;SDS011;48941;49.516;8.286;2023-03-23T00:50:27;3.25;;;1.80;;
62848;SDS011;48941;49.516;8.286;2023-03-23T00:52:54;3.53;;;2.00;;
62848;SDS011;48941;49.516;8.286;2023-03-23T00:55:22;2.38;;;1.75;;
62848;SDS011;48941;49.516;8.286;2023-03-23T00:57:49;2.83;;;1.70;;
62848;SDS011;48941;49.516;8.286;2023-03-23T01:00:16;2.50;;;1.90;;
62848;SDS011;48941;49.516;8.286;2023-03-23T01:02:45;3.63;;;1.60;;
62848;SDS011;48941;49.516;8.286;2023-03-23T01:05:12;2.08;;;1.67;;
62848;SDS011;48941;49.516;8.286;2023-03-23T01:07:40;1.73;;;1.63;;
62848;SDS011;48941;49.516;8.286;2023-03-23T01:10:07;2.25;;;1.73;;
62848;SDS011;48941;49.516;8.286;2023-03-23T01:12:34;2.13;;;1.70;;
62848;SDS011;48941;49.516;8.286;2023-03-23T01:15:01;3.08;;;1.60;;
62848;SDS011;48941;49.516;8.286;2023-03-23T01:17:27;2.35;;;1.95;;
62848;SDS011;48941;49.516;8.286;2023-03-23T01:19:56;5.70;;;1.77;;
62848;SDS011;48941;49.516;8.286;2023-03-23T01:22:22;1.60;;;1.50;;
62848;SDS011;48941;49.516;8.286;2023-03-23T01:24:49;5.53;;;1.95;;
62848;SDS011;48941;49.516;8.286;2023-03-23T01:27:16;2.42;;;1.50;;
62848;SDS011;48941;49.516;8.286;2023-03-23T01:29:42;2.03;;;1.70;;
62848;SDS011;48941;49.516;8.286;2023-03-23T01:32:09;2.15;;;1.60;;
62848;SDS011;48941;49.516;8.286;2023-03-23T01:34:35;1.63;;;1.40;;
62848;SDS011;48941;49.516;8.286;2023-03-23T01:37:03;1.73;;;1.58;;
62848;SDS011;48941;49.516;8.286;2023-03-23T01:39:30;1.88;;;1.40;;
62848;SDS011;48941;49.516;8.286;2023-03-23T01:41:57;2.78;;;1.75;;
62848;SDS011;48941;49.516;8.286;2023-03-23T01:47:27;2.22;;;1.55;;
62848;SDS011;48941;49.516;8.286;2023-03-23T01:49:54;3.33;;;1.60;;
62848;SDS011;48941;49.516;8.286;2023-03-23T01:52:23;2.17;;;1.60;;
62848;SDS011;48941;49.516;8.286;2023-03-23T01:57:22;3.50;;;1.67;;
62848;SDS011;48941;49.516;8.286;2023-03-23T01:59:53;1.73;;;1.52;;
62848;SDS011;48941;49.516;8.286;2023-03-23T02:02:23;4.55;;;2.00;;
62848;SDS011;48941;49.516;8.286;2023-03-23T02:04:51;2.65;;;1.70;;
62848;SDS011;48941;49.516;8.286;2023-03-23T02:07:24;1.60;;;1.50;;
62848;SDS011;48941;49.516;8.286;2023-03-23T02:09:52;1.70;;;1.60;;
62848;SDS011;48941;49.516;8.286;2023-03-23T02:12:19;3.75;;;1.90;;
62848;SDS011;48941;49.516;8.286;2023-03-23T02:14:45;2.67;;;1.67;;
62848;SDS011;48941;49.516;8.286;2023-03-23T02:17:14;2.65;;;1.80;;
62848;SDS011;48941;49.516;8.286;2023-03-23T02:19:55;2.92;;;1.92;;
62848;SDS011;48941;49.516;8.286;2023-03-23T02:25:55;2.05;;;1.67;;
62848;SDS011;48941;49.516;8.286;2023-03-23T02:28:38;1.77;;;1.50;;
62848;SDS011;48941;49.516;8.286;2023-03-23T02:31:22;1.50;;;1.40;;
62848;SDS011;48941;49.516;8.286;2023-03-23T02:34:05;2.15;;;1.60;;
62848;SDS011;48941;49.516;8.286;2023-03-23T02:36:37;3.25;;;1.67;;
62848;SDS011;48941;49.516;8.286;2023-03-23T02:39:09;2.63;;;1.73;;
62848;SDS011;48941;49.516;8.286;2023-03-23T02:41:39;1.40;;;1.30;;
62848;SDS011;48941;49.516;8.286;2023-03-23T02:46:39;3.45;;;1.55;;
62848;SDS011;48941;49.516;8.286;2023-03-23T02:49:09;2.38;;;1.38;;
62848;SDS011;48941;49.516;8.286;2023-03-23T02:51:39;1.50;;;1.40;;
62848;SDS011;48941;49.516;8.286;2023-03-23T02:54:06;1.63;;;1.52;;
62848;SDS011;48941;49.516;8.286;2023-03-23T02:56:35;1.50;;;1.40;;
62848;SDS011;48941;49.516;8.286;2023-03-23T02:59:02;1.60;;;1.50;;
62848;SDS011;48941;49.516;8.286;2023-03-23T03:04:18;2.97;;;1.70;;
62848;SDS011;48941;49.516;8.286;2023-03-23T03:06:49;2.08;;;1.60;;
62848;SDS011;48941;49.516;8.286;2023-03-23T03:09:30;2.80;;;1.42;;
62848;SDS011;48941;49.516;8.286;2023-03-23T03:12:07;1.92;;;1.60;;
62848;SDS011;48941;49.516;8.286;2023-03-23T03:14:38;1.90;;;1.65;;
62848;SDS011;48941;49.516;8.286;2023-03-23T03:17:10;2.13;;;1.48;;
62848;SDS011;48941;49.516;8.286;2023-03-23T03:19:45;1.77;;;1.60;;
62848;SDS011;48941;49.516;8.286;2023-03-23T03:24:44;3.30;;;1.80;;
62848;SDS011;48941;49.516;8.286;2023-03-23T03:27:11;2.72;;;1.58;;
62848;SDS011;48941;49.516;8.286;2023-03-23T03:29:41;2.08;;;1.80;;
62848;SDS011;48941;49.516;8.286;2023-03-23T03:32:16;1.70;;;1.50;;
62848;SDS011;48941;49.516;8.286;2023-03-23T03:34:47;2.72;;;1.70;;
62848;SDS011;48941;49.516;8.286;2023-03-23T03:37:15;1.70;;;1.60;;
62848;SDS011;48941;49.516;8.286;2023-03-23T03:39:43;2.17;;;1.73;;
62848;SDS011;48941;49.516;8.286;2023-03-23T03:42:10;1.65;;;1.50;;
62848;SDS011;48941;49.516;8.286;2023-03-23T03:44:37;2.22;;;1.70;;
62848;SDS011;48941;49.516;8.286;2023-03-23T03:47:03;3.25;;;1.67;;
62848;SDS011;48941;49.516;8.286;2023-03-23T03:49:30;2.05;;;1.45;;
62848;SDS011;48941;49.516;8.286;2023-03-23T03:51:58;1.58;;;1.48;;
62848;SDS011;48941;49.516;8.286;2023-03-23T03:54:25;4.25;;;1.80;;
62848;SDS011;48941;49.516;8.286;2023-03-23T03:56:52;1.63;;;1.48;;
62848;SDS011;48941;49.516;8.286;2023-03-23T03:59:23;1.73;;;1.48;;
62848;SDS011;48941;49.516;8.286;2023-03-23T04:01:51;5.57;;;1.85;;
62848;SDS011;48941;49.516;8.286;2023-03-23T04:04:19;1.83;;;1.65;;
62848;SDS011;48941;49.516;8.286;2023-03-23T04:06:47;2.47;;;1.80;;
62848;SDS011;48941;49.516;8.286;2023-03-23T04:09:16;2.80;;;1.80;;
62848;SDS011;48941;49.516;8.286;2023-03-23T04:11:44;2.47;;;2.10;;
62848;SDS011;48941;49.516;8.286;2023-03-23T04:14:11;2.55;;;1.80;;
62848;SDS011;48941;49.516;8.286;2023-03-23T04:16:38;1.95;;;1.80;;
62848;SDS011;48941;49.516;8.286;2023-03-23T04:19:06;2.58;;;2.20;;
62848;SDS011;48941;49.516;8.286;2023-03-23T04:21:33;5.60;;;2.08;;
62848;SDS011;48941;49.516;8.286;2023-03-23T04:24:00;4.25;;;1.90;;
62848;SDS011;48941;49.516;8.286;2023-03-23T04:26:29;1.95;;;1.85;;
62848;SDS011;48941;49.516;8.286;2023-03-23T04:28:56;2.00;;;1.88;;
62848;SDS011;48941;49.516;8.286;2023-03-23T04:31:24;4.70;;;1.77;;
62848;SDS011;48941;49.516;8.286;2023-03-23T04:33:50;3.03;;;1.98;;
62848;SDS011;48941;49.516;8.286;2023-03-23T04:36:18;3.75;;;2.20;;
62848;SDS011;48941;49.516;8.286;2023-03-23T04:38:47;2.97;;;2.10;;
62848;SDS011;48941;49.516;8.286;2023-03-23T04:41:15;3.97;;;2.10;;
62848;SDS011;48941;49.516;8.286;2023-03-23T04:43:43;2.28;;;2.08;;
62848;SDS011;48941;49.516;8.286;2023-03-23T04:46:10;3.80;;;2.25;;
62848;SDS011;48941;49.516;8.286;2023-03-23T04:48:37;3.00;;;2.22;;
62848;SDS011;48941;49.516;8.286;2023-03-23T04:51:04;3.72;;;2.35;;
62848;SDS011;48941;49.516;8.286;2023-03-23T04:53:31;2.70;;;2.35;;
62848;SDS011;48941;49.516;8.286;2023-03-23T04:55:59;4.35;;;2.50;;
62848;SDS011;48941;49.516;8.286;2023-03-23T04:58:26;2.38;;;2.10;;
62848;SDS011;48941;49.516;8.286;2023-03-23T05:00:54;2.05;;;1.80;;
62848;SDS011;48941;49.516;8.286;2023-03-23T05:03:21;2.10;;;1.90;;
62848;SDS011;48941;49.516;8.286;2023-03-23T05:05:48;4.63;;;2.28;;
62848;SDS011;48941;49.516;8.286;2023-03-23T05:08:17;2.83;;;2.30;;
62848;SDS011;48941;49.516;8.286;2023-03-23T05:10:49;3.33;;;2.20;;
62848;SDS011;48941;49.516;8.286;2023-03-23T05:13:16;3.85;;;2.22;;
62848;SDS011;48941;49.516;8.286;2023-03-23T05:15:43;2.05;;;1.70;;
62848;SDS011;48941;49.516;8.286;2023-03-23T05:18:11;2.90;;;1.90;;
62848;SDS011;48941;49.516;8.286;2023-03-23T05:20:38;2.28;;;2.00;;
62848;SDS011;48941;49.516;8.286;2023-03-23T05:23:05;3.15;;;1.60;;
62848;SDS011;48941;49.516;8.286;2023-03-23T05:25:31;2.22;;;1.73;;
62848;SDS011;48941;49.516;8.286;2023-03-23T05:28:01;2.30;;;1.60;;
62848;SDS011;48941;49.516;8.286;2023-03-23T05:30:28;3.92;;;2.00;;
62848;SDS011;48941;49.516;8.286;2023-03-23T05:32:55;4.43;;;1.80;;
62848;SDS011;48941;49.516;8.286;2023-03-23T05:35:23;2.25;;;1.80;;
62848;SDS011;48941;49.516;8.286;2023-03-23T05:37:50;2.40;;;1.80;;
62848;SDS011;48941;49.516;8.286;2023-03-23T05:40:18;2.22;;;1.60;;
62848;SDS011;48941;49.516;8.286;2023-03-23T05:42:45;2.75;;;1.88;;
62848;SDS011;48941;49.516;8.286;2023-03-23T05:45:12;2.75;;;1.77;;
62848;SDS011;48941;49.516;8.286;2023-03-23T05:47:39;3.22;;;1.70;;
62848;SDS011;48941;49.516;8.286;2023-03-23T05:50:07;2.60;;;1.85;;
62848;SDS011;48941;49.516;8.286;2023-03-23T05:52:37;2.10;;;1.67;;
62848;SDS011;48941;49.516;8.286;2023-03-23T05:55:05;2.78;;;1.73;;
62848;SDS011;48941;49.516;8.286;2023-03-23T05:57:32;2.05;;;1.45;;
62848;SDS011;48941;49.516;8.286;2023-03-23T05:59:59;2.88;;;1.60;;
62848;SDS011;48941;49.516;8.286;2023-03-23T06:02:31;4.53;;;3.05;;
62848;SDS011;48941;49.516;8.286;2023-03-23T06:04:59;1.73;;;1.63;;
62848;SDS011;48941;49.516;8.286;2023-03-23T06:07:26;1.77;;;1.50;;
62848;SDS011;48941;49.516;8.286;2023-03-23T06:09:54;2.40;;;1.73;;
62848;SDS011;48941;49.516;8.286;2023-03-23T06:12:20;3.08;;;1.70;;
62848;SDS011;48941;49.516;8.286;2023-03-23T06:14:47;2.30;;;1.50;;
62848;SDS011;48941;49.516;8.286;2023-03-23T06:17:14;2.40;;;1.50;;
62848;SDS011;48941;49.516;8.286;2023-03-23T06:19:42;2.95;;;1.83;;
62848;SDS011;48941;49.516;8.286;2023-03-23T06:22:10;2.08;;;1.58;;
62848;SDS011;48941;49.516;8.286;2023-03-23T06:24:37;5.47;;;1.80;;
62848;SDS011;48941;49.516;8.286;2023-03-23T06:27:05;2.97;;;2.13;;
62848;SDS011;48941;49.516;8.286;2023-03-23T06:29:33;2.00;;;1.65;;
62848;SDS011;48941;49.516;8.286;2023-03-23T06:32:00;1.70;;;1.60;;
62848;SDS011;48941;49.516;8.286;2023-03-23T06:34:28;1.88;;;1.58;;
62848;SDS011;48941;49.516;8.286;2023-03-23T06:36:55;1.70;;;1.50;;
62848;SDS011;48941;49.516;8.286;2023-03-23T06:39:22;1.70;;;1.60;;
62848;SDS011;48941;49.516;8.286;2023-03-23T06:41:49;1.65;;;1.52;;
62848;SDS011;48941;49.516;8.286;2023-03-23T06:44:18;2.10;;;1.40;;
62848;SDS011;48941;49.516;8.286;2023-03-23T06:46:44;2.45;;;1.67;;
62848;SDS011;48941;49.516;8.286;2023-03-23T06:49:12;1.55;;;1.45;;
62848;SDS011;48941;49.516;8.286;2023-03-23T06:51:40;3.63;;;1.50;;
62848;SDS011;48941;49.516;8.286;2023-03-23T06:54:06;2.05;;;1.50;;
62848;SDS011;48941;49.516;8.286;2023-03-23T06:56:33;2.20;;;1.67;;
62848;SDS011;48941;49.516;8.286;2023-03-23T06:59:00;1.92;;;1.73;;
62848;SDS011;48941;49.516;8.286;2023-03-23T07:01:28;13.35;;;1.70;;
62848;SDS011;48941;49.516;8.286;2023-03-23T07:03:55;3.28;;;1.70;;
62848;SDS011;48941;49.516;8.286;2023-03-23T07:06:23;1.73;;;1.60;;
62848;SDS011;48941;49.516;8.286;2023-03-23T07:08:50;2.88;;;1.52;;
62848;SDS011;48941;49.516;8.286;2023-03-23T07:11:17;2.08;;;1.50;;
62848;SDS011;48941;49.516;8.286;2023-03-23T07:13:43;5.40;;;1.80;;
62848;SDS011;48941;49.516;8.286;2023-03-23T07:16:10;2.33;;;1.70;;
62848;SDS011;48941;49.516;8.286;2023-03-23T07:18:38;3.70;;;1.58;;
62848;SDS011;48941;49.516;8.286;2023-03-23T07:21:06;1.75;;;1.60;;
62848;SDS011;48941;49.516;8.286;2023-03-23T07:23:32;1.90;;;1.60;;
62848;SDS011;48941;49.516;8.286;2023-03-23T07:25:59;1.80;;;1.70;;
62848;SDS011;48941;49.516;8.286;2023-03-23T07:28:26;1.48;;;1.25;;
62848;SDS011;48941;49.516;8.286;2023-03-23T07:30:53;3.40;;;1.35;;
62848;SDS011;48941;49.516;8.286;2023-03-23T07:33:19;1.55;;;1.40;;
62848;SDS011;48941;49.516;8.286;2023-03-23T07:35:48;2.28;;;1.40;;
62848;SDS011;48941;49.516;8.286;2023-03-23T07:38:14;1.60;;;1.30;;
62848;SDS011;48941;49.516;8.286;2023-03-23T07:40:41;1.80;;;1.00;;
62848;SDS011;48941;49.516;8.286;2023-03-23T07:43:09;1.73;;;1.20;;
62848;SDS011;48941;49.516;8.286;2023-03-23T07:45:35;1.38;;;1.27;;
62848;SDS011;48941;49.516;8.286;2023-03-23T07:48:02;2.67;;;1.77;;
62848;SDS011;48941;49.516;8.286;2023-03-23T07:50:30;4.38;;;1.40;;
62848;SDS011;48941;49.516;8.286;2023-03-23T07:52:59;1.85;;;1.45;;
62848;SDS011;48941;49.516;8.286;2023-03-23T07:55:26;1.50;;;1.40;;
62848;SDS011;48941;49.516;8.286;2023-03-23T07:57:53;1.63;;;1.30;;
62848;SDS011;48941;49.516;8.286;2023-03-23T08:00:21;2.50;;;1.48;;
62848;SDS011;48941;49.516;8.286;2023-03-23T08:02:50;3.67;;;1.50;;
62848;SDS011;48941;49.516;8.286;2023-03-23T08:05:20;1.67;;;1.40;;
62848;SDS011;48941;49.516;8.286;2023-03-23T08:07:48;2.70;;;1.63;;
62848;SDS011;48941;49.516;8.286;2023-03-23T08:10:18;1.73;;;1.60;;
62848;SDS011;48941;49.516;8.286;2023-03-23T08:12:49;6.43;;;1.60;;
62848;SDS011;48941;49.516;8.286;2023-03-23T08:15:17;2.45;;;1.60;;
62848;SDS011;48941;49.516;8.286;2023-03-23T08:17:46;2.25;;;1.30;;
62848;SDS011;48941;49.516;8.286;2023-03-23T08:20:13;2.33;;;1.55;;
62848;SDS011;48941;49.516;8.286;2023-03-23T08:22:42;1.73;;;1.40;;
62848;SDS011;48941;49.516;8.286;2023-03-23T08:25:10;3.53;;;1.50;;
62848;SDS011;48941;49.516;8.286;2023-03-23T08:27:40;1.70;;;1.45;;
62848;SDS011;48941;49.516;8.286;2023-03-23T08:30:08;2.03;;;1.50;;
62848;SDS011;48941;49.516;8.286;2023-03-23T08:32:36;1.98;;;1.35;;
62848;SDS011;48941;49.516;8.286;2023-03-23T08:35:04;1.80;;;1.30;;
62848;SDS011;48941;49.516;8.286;2023-03-23T08:37:32;1.67;;;1.52;;
62848;SDS011;48941;49.516;8.286;2023-03-23T08:39:59;3.25;;;1.60;;
62848;SDS011;48941;49.516;8.286;2023-03-23T08:42:28;3.58;;;1.65;;
62848;SDS011;48941;49.516;8.286;2023-03-23T08:44:56;1.70;;;1.40;;
62848;SDS011;48941;49.516;8.286;2023-03-23T08:47:23;2.35;;;1.60;;
62848;SDS011;48941;49.516;8.286;2023-03-23T08:49:50;2.03;;;1.65;;
62848;SDS011;48941;49.516;8.286;2023-03-23T08:52:19;1.77;;;1.50;;
62848;SDS011;48941;49.516;8.286;2023-03-23T08:54:46;3.53;;;1.40;;
62848;SDS011;48941;49.516;8.286;2023-03-23T08:57:13;1.95;;;1.42;;
62848;SDS011;48941;49.516;8.286;2023-03-23T08:59:41;1.92;;;1.38;;
62848;SDS011;48941;49.516;8.286;2023-03-23T09:02:09;1.45;;;1.35;;
62848;SDS011;48941;49.516;8.286;2023-03-23T09:04:37;4.45;;;1.30;;
62848;SDS011;48941;49.516;8.286;2023-03-23T09:07:04;2.55;;;1.65;;
62848;SDS011;48941;49.516;8.286;2023-03-23T09:09:31;1.60;;;1.50;;
62848;SDS011;48941;49.516;8.286;2023-03-23T09:11:59;1.35;;;1.25;;
62848;SDS011;48941;49.516;8.286;2023-03-23T09:14:26;1.25;;;1.17;;
62848;SDS011;48941;49.516;8.286;2023-03-23T09:16:53;3.20;;;1.50;;
62848;SDS011;48941;49.516;8.286;2023-03-23T09:19:22;2.78;;;1.30;;
62848;SDS011;48941;49.516;8.286;2023-03-23T09:21:48;1.33;;;1.20;;
62848;SDS011;48941;49.516;8.286;2023-03-23T09:24:16;3.75;;;1.30;;
62848;SDS011;48941;49.516;8.286;2023-03-23T09:26:44;1.50;;;1.30;;
62848;SDS011;48941;49.516;8.286;2023-03-23T09:29:10;1.92;;;1.35;;
62848;SDS011;48941;49.516;8.286;2023-03-23T09:31:37;5.70;;;1.17;;
62848;SDS011;48941;49.516;8.286;2023-03-23T09:34:05;3.05;;;1.42;;
62848;SDS011;48941;49.516;8.286;2023-03-23T09:36:36;2.17;;;1.20;;
62848;SDS011;48941;49.516;8.286;2023-03-23T09:39:04;2.28;;;1.20;;
62848;SDS011;48941;49.516;8.286;2023-03-23T09:41:39;1.50;;;1.40;;
62848;SDS011;48941;49.516;8.286;2023-03-23T09:44:26;1.40;;;1.30;;
62848;SDS011;48941;49.516;8.286;2023-03-23T09:47:02;1.40;;;1.30;;
62848;SDS011;48941;49.516;8.286;2023-03-23T09:49:36;3.47;;;1.40;;
62848;SDS011;48941;49.516;8.286;2023-03-23T09:52:09;1.60;;;1.48;;
62848;SDS011;48941;49.516;8.286;2023-03-23T09:54:40;2.08;;;1.38;;
62848;SDS011;48941;49.516;8.286;2023-03-23T09:57:11;1.45;;;1.30;;
62848;SDS011;48941;49.516;8.286;2023-03-23T09:59:52;3.83;;;1.25;;
62848;SDS011;48941;49.516;8.286;2023-03-23T10:02:24;1.50;;;1.40;;
62848;SDS011;48941;49.516;8.286;2023-03-23T10:04:55;1.80;;;1.27;;
62848;SDS011;48941;49.516;8.286;2023-03-23T10:07:43;2.70;;;1.80;;
62848;SDS011;48941;49.516;8.286;2023-03-23T10:10:12;4.20;;;1.70;;
62848;SDS011;48941;49.516;8.286;2023-03-23T10:12:41;1.98;;;1.50;;
62848;SDS011;48941;49.516;8.286;2023-03-23T10:15:13;2.65;;;1.45;;
62848;SDS011;48941;49.516;8.286;2023-03-23T10:17:45;4.82;;;1.63;;
62848;SDS011;48941;49.516;8.286;2023-03-23T10:20:21;2.85;;;1.80;;
62848;SDS011;48941;49.516;8.286;2023-03-23T10:22:58;1.60;;;1.50;;
62848;SDS011;48941;49.516;8.286;2023-03-23T10:25:33;4.38;;;1.70;;
62848;SDS011;48941;49.516;8.286;2023-03-23T10:28:04;2.22;;;1.60;;
62848;SDS011;48941;49.516;8.286;2023-03-23T10:30:36;1.70;;;1.60;;
62848;SDS011;48941;49.516;8.286;2023-03-23T10:33:08;4.35;;;1.67;;
62848;SDS011;48941;49.516;8.286;2023-03-23T10:35:42;2.40;;;1.50;;
62848;SDS011;48941;49.516;8.286;2023-03-23T10:38:13;2.15;;;1.67;;
62848;SDS011;48941;49.516;8.286;2023-03-23T10:40:48;2.25;;;1.50;;
62848;SDS011;48941;49.516;8.286;2023-03-23T10:43:19;1.42;;;1.27;;
62848;SDS011;48941;49.516;8.286;2023-03-23T10:45:47;2.70;;;1.40;;
62848;SDS011;48941;49.516;8.286;2023-03-23T10:48:23;4.38;;;1.85;;
62848;SDS011;48941;49.516;8.286;2023-03-23T10:50:54;3.30;;;2.08;;
62848;SDS011;48941;49.516;8.286;2023-03-23T10:53:26;4.00;;;1.80;;
62848;SDS011;48941;49.516;8.286;2023-03-23T10:55:57;4.05;;;1.60;;
62848;SDS011;48941;49.516;8.286;2023-03-23T10:58:25;3.70;;;1.38;;
62848;SDS011;48941;49.516;8.286;2023-03-23T11:00:55;1.60;;;1.23;;
62848;SDS011;48941;49.516;8.286;2023-03-23T11:03:24;2.15;;;1.40;;
62848;SDS011;48941;49.516;8.286;2023-03-23T11:05:58;2.08;;;1.60;;
62848;SDS011;48941;49.516;8.286;2023-03-23T11:08:30;4.43;;;1.92;;
62848;SDS011;48941;49.516;8.286;2023-03-23T11:11:07;3.75;;;1.70;;
62848;SDS011;48941;49.516;8.286;2023-03-23T11:13:39;1.70;;;1.60;;
62848;SDS011;48941;49.516;8.286;2023-03-23T11:16:08;2.55;;;1.75;;
62848;SDS011;48941;49.516;8.286;2023-03-23T11:18:37;1.92;;;1.80;;
62848;SDS011;48941;49.516;8.286;2023-03-23T11:21:05;2.63;;;1.80;;
62848;SDS011;48941;49.516;8.286;2023-03-23T11:23:37;2.17;;;1.90;;
62848;SDS011;48941;49.516;8.286;2023-03-23T11:26:12;2.25;;;1.73;;
62848;SDS011;48941;49.516;8.286;2023-03-23T11:28:43;1.60;;;1.40;;
62848;SDS011;48941;49.516;8.286;2023-03-23T11:31:12;1.98;;;1.50;;
62848;SDS011;48941;49.516;8.286;2023-03-23T11:33:41;2.05;;;1.50;;
62848;SDS011;48941;49.516;8.286;2023-03-23T11:36:14;1.40;;;1.30;;
62848;SDS011;48941;49.516;8.286;2023-03-23T11:38:43;1.20;;;1.10;;
62848;SDS011;48941;49.516;8.286;2023-03-23T11:41:11;1.13;;;1.08;;
62848;SDS011;48941;49.516;8.286;2023-03-23T11:43:43;1.20;;;1.10;;
62848;SDS011;48941;49.516;8.286;2023-03-23T11:48:42;1.20;;;1.10;;
62848;SDS011;48941;49.516;8.286;2023-03-23T11:51:17;1.02;;;1.02;;
62848;SDS011;48941;49.516;8.286;2023-03-23T11:53:53;1.85;;;1.30;;
62848;SDS011;48941;49.516;8.286;2023-03-23T11:56:26;2.40;;;1.10;;
62848;SDS011;48941;49.516;8.286;2023-03-23T11:58:56;1.88;;;1.45;;
62848;SDS011;48941;49.516;8.286;2023-03-23T12:01:28;1.23;;;1.13;;
62848;SDS011;48941;49.516;8.286;2023-03-23T12:04:18;1.55;;;1.20;;
62848;SDS011;48941;49.516;8.286;2023-03-23T12:06:56;1.17;;;1.02;;
62848;SDS011;48941;49.516;8.286;2023-03-23T12:09:39;0.95;;;0.95;;
62848;SDS011;48941;49.516;8.286;2023-03-23T12:12:16;1.05;;;1.00;;
62848;SDS011;48941;49.516;8.286;2023-03-23T12:14:53;1.10;;;1.02;;
62848;SDS011;48941;49.516;8.286;2023-03-23T12:17:30;1.95;;;1.30;;
62848;SDS011;48941;49.516;8.286;2023-03-23T12:20:13;1.10;;;1.10;;
62848;SDS011;48941;49.516;8.286;2023-03-23T12:22:55;1.25;;;1.10;;
62848;SDS011;48941;49.516;8.286;2023-03-23T12:25:42;1.58;;;1.20;;
62848;SDS011;48941;49.516;8.286;2023-03-23T12:28:21;1.20;;;1.02;;
62848;SDS011;48941;49.516;8.286;2023-03-23T12:30:55;1.30;;;1.20;;
62848;SDS011;48941;49.516;8.286;2023-03-23T12:33:33;1.88;;;1.10;;
62848;SDS011;48941;49.516;8.286;2023-03-23T12:36:14;1.75;;;1.13;;
62848;SDS011;48941;49.516;8.286;2023-03-23T12:39:00;1.67;;;1.23;;
62848;SDS011;48941;49.516;8.286;2023-03-23T12:41:41;1.20;;;1.00;;
62848;SDS011;48941;49.516;8.286;2023-03-23T12:44:14;1.10;;;1.10;;
62848;SDS011;48941;49.516;8.286;2023-03-23T12:46:48;1.40;;;1.30;;
62848;SDS011;48941;49.516;8.286;2023-03-23T12:49:25;1.92;;;1.30;;
62848;SDS011;48941;49.516;8.286;2023-03-23T12:51:58;1.38;;;1.10;;
62848;SDS011;48941;49.516;8.286;2023-03-23T12:54:32;1.25;;;1.15;;
62848;SDS011;48941;49.516;8.286;2023-03-23T12:57:12;1.60;;;1.27;;
62848;SDS011;48941;49.516;8.286;2023-03-23T12:59:43;2.83;;;1.63;;
62848;SDS011;48941;49.516;8.286;2023-03-23T13:02:20;3.45;;;2.13;;
62848;SDS011;48941;49.516;8.286;2023-03-23T13:05:03;2.80;;;1.90;;
62848;SDS011;48941;49.516;8.286;2023-03-23T13:07:35;2.03;;;1.48;;
62848;SDS011;48941;49.516;8.286;2023-03-23T13:10:14;1.73;;;1.38;;
62848;SDS011;48941;49.516;8.286;2023-03-23T13:12:47;3.45;;;1.95;;
62848;SDS011;48941;49.516;8.286;2023-03-23T13:15:22;2.45;;;1.70;;
62848;SDS011;48941;49.516;8.286;2023-03-23T13:17:58;4.85;;;1.10;;
62848;SDS011;48941;49.516;8.286;2023-03-23T13:20:33;2.67;;;1.20;;
62848;SDS011;48941;49.516;8.286;2023-03-23T13:23:09;1.20;;;1.10;;
62848;SDS011;48941;49.516;8.286;2023-03-23T13:25:43;1.50;;;1.10;;
62848;SDS011;48941;49.516;8.286;2023-03-23T13:28:17;1.48;;;1.02;;
62848;SDS011;48941;49.516;8.286;2023-03-23T13:30:55;2.08;;;1.00;;
62848;SDS011;48941;49.516;8.286;2023-03-23T13:33:25;3.63;;;1.23;;
62848;SDS011;48941;49.516;8.286;2023-03-23T13:35:55;0.88;;;0.88;;
62848;SDS011;48941;49.516;8.286;2023-03-23T13:38:23;1.25;;;1.15;;
62848;SDS011;48941;49.516;8.286;2023-03-23T13:40:51;1.10;;;1.00;;
62848;SDS011;48941;49.516;8.286;2023-03-23T13:43:30;2.13;;;1.02;;
62848;SDS011;48941;49.516;8.286;2023-03-23T13:46:07;1.50;;;1.40;;
62848;SDS011;48941;49.516;8.286;2023-03-23T13:48:40;2.30;;;1.00;;
62848;SDS011;48941;49.516;8.286;2023-03-23T13:51:24;2.05;;;1.25;;
62848;SDS011;48941;49.516;8.286;2023-03-23T13:54:04;1.00;;;1.00;;
62848;SDS011;48941;49.516;8.286;2023-03-23T13:56:35;1.35;;;1.25;;
62848;SDS011;48941;49.516;8.286;2023-03-23T13:59:13;7.80;;;1.42;;
62848;SDS011;48941;49.516;8.286;2023-03-23T14:01:42;2.03;;;1.17;;
62848;SDS011;48941;49.516;8.286;2023-03-23T14:04:10;1.45;;;1.35;;
62848;SDS011;48941;49.516;8.286;2023-03-23T14:06:41;2.10;;;1.10;;
62848;SDS011;48941;49.516;8.286;2023-03-23T14:09:11;2.53;;;1.35;;
62848;SDS011;48941;49.516;8.286;2023-03-23T14:11:46;1.45;;;1.23;;
62848;SDS011;48941;49.516;8.286;2023-03-23T14:14:23;2.10;;;1.25;;
62848;SDS011;48941;49.516;8.286;2023-03-23T14:16:53;2.00;;;1.45;;
62848;SDS011;48941;49.516;8.286;2023-03-23T14:19:37;1.90;;;1.60;;
62848;SDS011;48941;49.516;8.286;2023-03-23T14:22:05;1.73;;;1.45;;
62848;SDS011;48941;49.516;8.286;2023-03-23T14:24:44;1.73;;;1.55;;
62848;SDS011;48941;49.516;8.286;2023-03-23T14:27:12;2.55;;;1.33;;
62848;SDS011;48941;49.516;8.286;2023-03-23T14:29:43;3.75;;;2.13;;
62848;SDS011;48941;49.516;8.286;2023-03-23T14:32:11;2.83;;;1.75;;
62848;SDS011;48941;49.516;8.286;2023-03-23T14:34:41;1.83;;;1.70;;
62848;SDS011;48941;49.516;8.286;2023-03-23T14:37:09;1.42;;;1.33;;
62848;SDS011;48941;49.516;8.286;2023-03-23T14:39:39;3.42;;;1.60;;
62848;SDS011;48941;49.516;8.286;2023-03-23T14:42:06;2.40;;;1.35;;
62848;SDS011;48941;49.516;8.286;2023-03-23T14:44:41;1.40;;;1.30;;
62848;SDS011;48941;49.516;8.286;2023-03-23T14:47:13;1.58;;;1.48;;
62848;SDS011;48941;49.516;8.286;2023-03-23T14:49:45;2.40;;;1.33;;
62848;SDS011;48941;49.516;8.286;2023-03-23T14:52:12;1.48;;;1.35;;
62848;SDS011;48941;49.516;8.286;2023-03-23T14:54:41;1.70;;;1.27;;
62848;SDS011;48941;49.516;8.286;2023-03-23T14:57:10;1.98;;;1.42;;
62848;SDS011;48941;49.516;8.286;2023-03-23T14:59:39;1.50;;;1.40;;
62848;SDS011;48941;49.516;8.286;2023-03-23T15:02:09;1.85;;;1.65;;
62848;SDS011;48941;49.516;8.286;2023-03-23T15:04:41;1.17;;;1.08;;
62848;SDS011;48941;49.516;8.286;2023-03-23T15:07:11;1.80;;;1.38;;
62848;SDS011;48941;49.516;8.286;2023-03-23T15:09:42;2.88;;;1.40;;
62848;SDS011;48941;49.516;8.286;2023-03-23T15:12:16;1.20;;;1.10;;
62848;SDS011;48941;49.516;8.286;2023-03-23T15:14:47;1.75;;;1.45;;
62848;SDS011;48941;49.516;8.286;2023-03-23T15:17:21;2.25;;;1.42;;
62848;SDS011;48941;49.516;8.286;2023-03-23T15:19:50;1.58;;;1.40;;
62848;SDS011;48941;49.516;8.286;2023-03-23T15:22:20;1.42;;;1.33;;
62848;SDS011;48941;49.516;8.286;2023-03-23T15:24:50;1.58;;;1.13;;